Terminal Aerodrome Forecast
Issued by NWS

Home | Current Version | Previous Version | Text Only | Print | Product List | Glossary On
Versions: 1 2 3 4 5 6 7 8 9 10 11 12 13
000
FTUS45 KVEF 251700
TAFVGT
TAF
KVGT 251720Z 2518/2618 15008KT P6SM VCSH BKN140
     FM252000 19012G20KT P6SM VCTS SCT100CB BKN140
     FM260400 15008KT P6SM SCT150=

USA.gov is the U.S. government's official web portal to all federal, state and local government web resources and services.